Date,TemperatureHighF,TemperatureAvgF,TemperatureLowF,DewpointHighF,DewpointAvgF,DewpointLowF,HumidityHigh,HumidityAvg,HumidityLow,PressureMaxIn,PressureMinIn,WindSpeedMaxMPH,WindSpeedAvgMPH,GustSpeedMaxMPH,PrecipitationSumIn
2014-6-3,79,71,66,-100,-100,-100,0,0,100,0.00,40.00,0,-999,0,0.00
2014-6-4,86,76,68,-100,-100,-100,0,0,100,0.00,40.00,0,-999,0,0.00
2014-6-5,90,80,73,-100,-100,-100,0,0,100,0.00,40.00,0,-999,0,0.00
2014-6-6,87,79,72,-100,-100,-100,0,0,100,0.00,40.00,0,-999,0,0.00
2014-6-7,88,79,72,-100,-100,-100,0,0,100,0.00,40.00,0,-999,0,0.00
2014-6-8,92,80,71,-100,-100,-100,0,0,100,0.00,40.00,0,-999,0,0.00
2014-6-9,88,81,76,-100,-100,-100,0,0,100,0.00,40.00,0,-999,0,0.00
2014-6-10,88,81,73,-100,-100,-100,0,0,100,0.00,40.00,0,-999,0,0.00
2014-6-11,85,78,72,-100,-100,-100,0,0,100,0.00,40.00,0,-999,0,0.00
2014-6-12,78,73,67,-100,-100,-100,0,0,100,0.00,40.00,0,-999,0,0.00
2014-6-13,73,67,60,-100,-100,-100,0,0,100,0.00,40.00,0,-999,0,0.00
2014-6-14,77,69,59,-100,-100,-100,0,0,100,0.00,40.00,0,-999,0,0.00
2014-6-15,72,67,63,-100,-100,-100,0,0,100,0.00,40.00,0,-999,0,0.00
2014-6-16,66,63,60,-100,-100,-100,0,0,100,0.00,40.00,0,-999,0,0.00
2014-6-17,70,63,57,-100,-100,-100,0,0,100,0.00,40.00,0,-999,0,0.00
2014-6-18,80,69,57,-100,-100,-100,0,0,100,0.00,40.00,0,-999,0,0.00
2014-6-19,81,75,65,-100,-100,-100,0,0,100,0.00,40.00,0,-999,0,0.00
2014-6-20,81,75,69,-100,-100,-100,0,0,100,0.00,40.00,0,-999,0,0.00
2014-6-21,82,74,69,-100,-100,-100,0,0,100,0.00,40.00,0,-999,0,0.00
2014-6-22,83,75,69,-100,-100,-100,0,0,100,0.00,40.00,0,-999,0,0.00
2014-6-23,84,76,71,-100,-100,-100,0,0,100,0.00,40.00,0,-999,0,0.00
2014-6-24,81,74,67,-100,-100,-100,0,0,100,0.00,40.00,0,-999,0,0.00
2014-6-25,78,71,64,-100,-100,-100,0,0,100,0.00,40.00,0,-999,0,0.00
2014-6-26,67,63,60,-100,-100,-100,0,0,100,0.00,40.00,0,-999,0,0.00
2014-6-27,76,70,63,-100,-100,-100,0,0,100,0.00,40.00,0,-999,0,0.00
2014-6-28,83,76,69,-100,-100,-100,0,0,100,0.00,40.00,0,-999,0,0.00
2014-6-29,90,82,75,-100,-100,-100,0,0,100,0.00,40.00,0,-999,0,0.00
2014-6-30,95,86,77,-100,-100,-100,0,0,100,0.00,40.00,0,-999,0,0.00
2014-7-1,92,86,75,-100,-100,-100,0,0,100,0.00,40.00,0,-999,0,0.00
2014-7-2,88,82,76,-100,-100,-100,0,0,100,0.00,40.00,0,-999,0,0.00
2014-7-3,88,80,74,-100,-100,-100,0,0,100,0.00,40.00,0,-999,0,0.00
2014-7-4,87,79,73,-100,-100,-100,0,0,100,0.00,40.00,0,-999,0,0.00
2014-7-5,88,80,75,-100,-100,-100,0,0,100,0.00,40.00,0,-999,0,0.00
2014-7-6,96,87,79,-100,-100,-100,0,0,100,0.00,40.00,0,-999,0,0.00
2014-7-7,94,87,81,-100,-100,-100,0,0,100,0.00,40.00,0,-999,0,0.00
2014-7-8,92,84,79,-100,-100,-100,0,0,100,0.00,40.00,0,-999,0,0.00
2014-7-9,91,84,78,-100,-100,-100,0,0,100,0.00,40.00,0,-999,0,0.00
2014-7-10,92,84,76,-100,0,200,0,0,100,0.00,40.00,0,0,0,0.00
2014-7-11,86,79,72,-100,0,200,0,0,100,0.00,40.00,0,0,0,0.00
2014-7-12,91,83,74,-100,0,200,0,0,100,0.00,40.00,0,0,0,0.00
2014-7-13,96,88,78,-100,0,200,0,0,100,0.00,40.00,0,0,0,0.00
2014-7-14,100,90,82,-100,0,200,0,0,100,0.00,40.00,0,0,0,0.00
2014-7-15,95,86,79,-100,0,200,0,0,100,0.00,40.00,0,0,0,0.00
2014-7-16,91,84,76,-100,0,200,0,0,100,0.00,40.00,0,0,0,0.00
2014-7-17,93,85,77,-100,0,200,0,0,100,0.00,40.00,0,0,0,0.00
2014-7-18,92,84,77,-100,0,200,0,0,100,0.00,40.00,0,0,0,0.00
2014-7-19,94,84,79,-100,0,200,0,0,100,0.00,40.00,0,0,0,0.00
2014-7-20,84,75,68,-100,0,200,0,0,100,0.00,40.00,0,0,0,0.00
2014-7-21,79,74,70,-100,0,200,0,0,100,0.00,40.00,0,0,0,0.00
2014-7-22,83,76,71,-100,0,200,0,0,100,0.00,40.00,0,0,0,0.00
2014-7-23,81,74,70,-100,0,200,0,0,100,0.00,40.00,0,0,0,0.00
2014-7-24,88,79,71,-100,0,200,0,0,100,0.00,40.00,0,0,0,0.00
2014-7-25,88,80,73,-100,0,200,0,0,100,0.00,40.00,0,0,0,0.00
2014-7-26,91,83,76,-100,0,200,0,0,100,0.00,40.00,0,0,0,0.00
2014-7-27,92,84,79,-100,0,200,0,0,100,0.00,40.00,0,0,0,0.00
2014-7-28,91,83,77,-100,0,200,0,0,100,0.00,40.00,0,0,0,0.00
2014-7-29,91,83,74,-100,0,200,0,0,100,0.00,40.00,0,0,0,0.00
2014-7-30,89,82,77,-100,0,200,0,0,100,0.00,40.00,0,0,0,0.00
2014-7-31,88,82,75,-100,0,200,0,0,100,0.00,40.00,0,0,0,0.00
2014-8-1,93,85,77,-100,0,200,0,0,100,0.00,40.00,0,0,0,0.00
2014-8-2,92,84,77,-100,0,200,0,0,100,0.00,40.00,0,0,0,0.00
2014-8-3,89,80,74,-100,0,200,0,0,100,0.00,40.00,0,0,0,0.00
2014-8-4,76,71,68,-100,0,200,0,0,100,0.00,40.00,0,0,0,0.00
2014-8-5,70,69,68,-100,0,200,0,0,100,0.00,40.00,0,0,0,0.00
2014-8-6,83,75,67,-100,0,200,0,0,100,0.00,40.00,0,0,0,0.00
2014-8-7,86,79,74,-100,0,200,0,0,100,0.00,40.00,0,0,0,0.00
2014-8-8,89,79,74,-100,0,200,0,0,100,0.00,40.00,0,0,0,0.00
2014-8-9,89,82,76,-100,0,200,0,0,100,0.00,40.00,0,0,0,0.00
2014-8-10,91,80,75,-100,0,200,0,0,100,0.00,40.00,0,0,0,0.00
2014-8-11,87,80,73,-100,0,200,0,0,100,0.00,40.00,0,0,0,0.00